Accueil
METAR-TAF:

METAR-TAF

Aéroports :

Aéroport de Savannakhet

Savannakhet, Laos

latitude: 16-33-24N, longitude: 104-45-34E, altitude: 155 m

Observation

Le bulletin a été fait il y a 24 minutes, à 02:00 UTC
Vent 4 kt de sud
Température 30°C
Humidité 70%
Pression 1008 hPa
Visibilité: 7000 m
Nuages épars à une hauteur de 4000 ft
Nuages épars à une hauteur de 10000 ft

METAR: VLSK 210200Z 18004KT 7000 SCT040 SCT100 30/24 Q1008 NOSIG

Heure: 09:24 (02:24 UTC)

Prévision

Le bulletin a été fait il y a 3 heures et 24 minutes, à 23:00 UTC
Prévision valable du 21 à 00 UTC au 21 à 24 UTC
Vent 4 kt de ouest/sud-ouest
Visibilité 10 km ou plus
Nuages épars à une hauteur de 2000 ft
Nuages épars à une hauteur de 10000 ft

TAF: VLSK 202300Z 2100/2124 24004KT 9999 SCT020 SCT100

Observations et prévisions météorologiques de plus de 4000 aéroports (messages METAR et TAF).

Les stations disponibles sont représentées par des disques jaunes et rouges sur la carte.

Passer la souris dessus pour voir le nom de la station.

Cliquer dessus pour voir les observations et prévisions météorologiques.

Pour changer de carte: cliquez sur les boutons verts avec une croix noire pour zoomer, sur le bouton vert avec un tiret pour effectuer un zoom arrière, ou sur les flèches vertes pour les cartes adjacentes.


METAR-TAF: